Time;durP1;ratioP1;P1;durP2;ratioP2;P2;SDS_P1;SDS_P2;PMS_P1;PMS_P2;Temp;Humidity;BMP_temperature;BMP_pressure;BME280_temperature;BME280_humidity;BME280_pressure;Samples;Min_cycle;Max_cycle;Signal;HPM_P1;HPM_P2
2023/10/05 00:01:13;;;;;;;;;7.25;5.75;;;;;17.63;63.38;102247.22;6308598;22;46491;-76
2023/10/05 00:03:43;;;;;;;;;7.75;6.00;;;;;17.59;63.96;102235.63;6307527;22;45426;-76
2023/10/05 00:06:16;;;;;;;;;4.00;4.00;;;;;17.39;63.55;102209.38;6280661;22;45278;-76
2023/10/05 00:08:44;;;;;;;;;5.50;5.50;;;;;17.42;63.78;102217.38;6308705;22;45285;-76
2023/10/05 00:11:11;;;;;;;;;5.25;5.25;;;;;17.36;63.83;102201.44;6307811;22;46542;-75
2023/10/05 00:13:37;;;;;;;;;3.75;3.75;;;;;17.47;63.70;102218.06;6307551;22;45480;-76
2023/10/05 00:16:05;;;;;;;;;4.00;4.00;;;;;17.47;63.64;102218.06;6280610;22;45266;-76
2023/10/05 00:18:30;;;;;;;;;2.25;1.00;;;;;17.43;63.76;102205.66;6308127;22;45642;-76
2023/10/05 00:20:56;;;;;;;;;7.25;6.00;;;;;17.55;63.34;102225.91;6280210;22;48033;-76
2023/10/05 00:23:21;;;;;;;;;5.75;5.00;;;;;17.53;63.45;102225.09;6308040;22;45163;-76
2023/10/05 00:25:47;;;;;;;;;6.00;4.50;;;;;17.39;63.71;102204.88;6308251;22;45649;-76
2023/10/05 00:28:14;;;;;;;;;5.75;5.75;;;;;17.53;64.04;102235.88;6308408;22;45570;-76
2023/10/05 00:30:40;;;;;;;;;6.00;4.00;;;;;17.41;63.90;102219.19;6280251;22;47234;-76
2023/10/05 00:33:10;;;;;;;;;6.75;5.50;;;;;17.54;64.02;102243.03;6308107;22;45267;-76
2023/10/05 00:35:37;;;;;;;;;8.75;6.25;;;;;17.54;63.89;102237.63;6308313;22;45504;-76
2023/10/05 00:38:16;;;;;;;;;12.25;7.50;;;;;17.51;63.95;102233.25;6280288;22;45548;-76
2023/10/05 00:41:01;;;;;;;;;9.50;8.50;;;;;17.36;64.51;102210.41;6280116;22;47340;-76
2023/10/05 00:43:27;;;;;;;;;13.25;11.00;;;;;17.37;64.46;102212.19;6307598;22;45364;-76
2023/10/05 00:45:56;;;;;;;;;66.00;52.00;;;;;17.45;64.24;102236.16;6308249;22;45333;-76
2023/10/05 00:51:12;;;;;;;;;61.00;46.75;;;;;17.34;64.32;102214.06;6307955;22;45672;-76
2023/10/05 00:53:41;;;;;;;;;36.50;31.75;;;;;17.43;64.13;102223.69;6307812;22;45635;-76
2023/10/05 00:56:11;;;;;;;;;18.75;16.75;;;;;17.22;64.05;102185.72;6307389;22;45311;-76
2023/10/05 00:58:47;;;;;;;;;10.75;9.00;;;;;17.29;63.81;102199.88;6279384;22;45403;-76
2023/10/05 01:01:16;;;;;;;;;14.00;10.50;;;;;17.43;64.00;102218.28;6308184;22;45971;-76
2023/10/05 01:06:42;;;;;;;;;10.50;8.00;;;;;17.31;64.00;102203.44;6307986;22;45351;-76
2023/10/05 01:09:32;;;;;;;;;11.50;8.00;;;;;17.39;64.07;102226.47;6307951;22;45379;-76
2023/10/05 01:12:02;;;;;;;;;7.00;7.00;;;;;17.29;64.23;102211.56;6307207;22;46409;-75
2023/10/05 01:14:51;;;;;;;;;7.00;5.25;;;;;17.26;64.49;102214.38;6307377;22;45343;-76
2023/10/05 01:17:20;;;;;;;;;4.75;4.00;;;;;17.44;64.20;102241.63;6307888;22;45303;-75
2023/10/05 01:19:50;;;;;;;;;7.00;5.75;;;;;17.42;64.00;102238.97;6307752;22;45354;-76
2023/10/05 01:22:16;;;;;;;;;5.00;5.00;;;;;17.33;64.37;102225.84;6306599;22;46158;-76
2023/10/05 01:24:45;;;;;;;;;9.00;6.25;;;;;17.28;64.36;102219.72;6308793;22;45421;-76
2023/10/05 01:27:11;;;;;;;;;7.75;6.50;;;;;17.44;64.10;102236.22;6309317;22;45278;-76
2023/10/05 01:29:36;;;;;;;;;5.50;5.50;;;;;17.43;64.36;102234.47;6309342;22;45517;-76
2023/10/05 01:32:02;;;;;;;;;7.25;4.00;;;;;17.39;64.44;102226.47;6309385;22;45461;-76
2023/10/05 01:34:27;;;;;;;;;5.00;5.00;;;;;17.30;64.14;102216.00;6281068;22;45307;-76
2023/10/05 01:36:54;;;;;;;;;6.25;6.25;;;;;17.29;64.21;102211.56;6280836;22;45323;-76
2023/10/05 01:39:21;;;;;;;;;6.00;5.00;;;;;17.17;64.37;102195.81;6309322;22;45313;-76
2023/10/05 01:41:48;;;;;;;;;5.75;4.00;;;;;17.08;64.42;102180.84;6281229;22;48028;-76
2023/10/05 01:44:14;;;;;;;;;7.00;7.00;;;;;17.03;64.20;102170.22;6281046;22;45416;-75
2023/10/05 01:46:39;;;;;;;;;5.25;5.00;;;;;17.28;64.55;102206.22;6309670;22;45532;-76
2023/10/05 01:49:05;;;;;;;;;9.50;6.50;;;;;17.27;64.94;102196.38;6281731;22;45283;-76
2023/10/05 01:51:31;;;;;;;;;8.00;6.00;;;;;17.04;64.83;102165.75;6280400;22;46886;-75
2023/10/05 01:54:05;;;;;;;;;7.75;6.25;;;;;17.22;64.65;102196.53;6308144;22;45498;-76
2023/10/05 01:56:32;;;;;;;;;4.25;4.25;;;;;17.26;64.65;102203.59;6283316;22;45265;-76
2023/10/05 01:59:00;;;;;;;;;6.25;6.00;;;;;17.14;64.85;102183.34;6309001;22;45325;-76
2023/10/05 02:01:28;;;;;;;;;3.00;3.00;;;;;17.18;65.29;102203.84;6309076;22;45418;-76
2023/10/05 02:03:54;;;;;;;;;5.00;5.00;;;;;17.04;64.98;102190.88;6308739;22;45401;-76
2023/10/05 02:06:22;;;;;;;;;10.25;6.75;;;;;17.22;65.30;102219.03;6254917;22;45485;-76
2023/10/05 02:08:47;;;;;;;;;7.25;6.00;;;;;17.19;65.32;102207.44;6309244;22;45360;-75
2023/10/05 02:11:17;;;;;;;;;6.50;5.00;;;;;17.04;65.32;102190.88;6309331;22;45343;-76
2023/10/05 02:13:43;;;;;;;;;5.00;5.00;;;;;17.23;65.14;102211.78;6280532;22;45912;-76
2023/10/05 02:16:16;;;;;;;;;6.25;5.50;;;;;17.16;65.01;102202.19;6308863;22;45204;-76
2023/10/05 02:18:41;;;;;;;;;3.00;3.00;;;;;17.19;64.60;102210.13;6280640;22;45248;-75
2023/10/05 02:21:17;;;;;;;;;6.00;6.00;;;;;16.90;64.95;102157.25;6308563;22;46868;-75
2023/10/05 02:23:51;;;;;;;;;5.50;5.00;;;;;17.00;64.85;102178.44;6281109;22;45383;-76
2023/10/05 02:26:34;;;;;;;;;6.00;4.00;;;;;16.97;65.09;102174.97;6281145;22;45371;-75
2023/10/05 02:29:13;;;;;;;;;4.25;4.25;;;;;16.82;65.04;102157.50;6280871;22;45331;-76
2023/10/05 02:31:50;;;;;;;;;6.75;5.25;;;;;16.90;64.74;102176.13;6308870;22;45288;-76
2023/10/05 02:34:17;;;;;;;;;3.75;3.75;;;;;16.83;65.01;102165.53;6279924;22;45939;-76
2023/10/05 02:36:43;;;;;;;;;7.25;6.00;;;;;16.82;65.21;102166.47;6309027;22;45338;-76
2023/10/05 02:39:08;;;;;;;;;4.50;4.00;;;;;16.78;65.16;102153.16;6280901;22;45502;-76
2023/10/05 02:41:39;;;;;;;;;8.00;4.50;;;;;16.92;65.06;102172.44;6308897;22;45260;-76
2023/10/05 02:44:19;;;;;;;;;5.25;4.50;;;;;16.93;65.21;102170.63;6280244;22;45538;-75
2023/10/05 02:46:48;;;;;;;;;7.75;7.25;;;;;16.85;65.36;102174.47;6333038;22;45360;-76
2023/10/05 02:49:18;;;;;;;;;5.50;5.50;;;;;16.79;65.49;102166.59;6308927;22;45549;-75
2023/10/05 02:51:43;;;;;;;;;7.00;5.25;;;;;16.96;65.38;102187.59;6280414;22;47020;-76
2023/10/05 02:54:10;;;;;;;;;5.00;5.00;;;;;16.87;65.49;102173.53;6308501;22;45355;-76
2023/10/05 02:56:37;;;;;;;;;6.00;4.00;;;;;17.01;65.56;102199.09;6309300;22;45288;-76
2023/10/05 02:59:07;;;;;;;;;6.00;5.00;;;;;16.96;65.55;102192.97;6308987;22;45376;-76
2023/10/05 03:01:34;;;;;;;;;5.25;5.25;;;;;16.86;65.71;102172.69;6308198;22;46484;-76
2023/10/05 03:04:44;;;;;;;;;4.50;4.50;;;;;17.03;65.88;102201.72;6308594;22;45322;-76
2023/10/05 03:06:52;;;;;;;;;5.25;5.25;;;;;16.90;65.83;102179.69;6307403;22;45193;-76
2023/10/05 03:09:18;;;;;;;;;5.25;4.75;;;;;16.95;65.93;102187.63;6309072;22;45310;-76
2023/10/05 03:11:47;;;;;;;;;6.25;4.75;;;;;16.93;66.02;102185.00;6280887;22;45997;-76
2023/10/05 03:14:16;;;;;;;;;5.00;5.00;;;;;16.99;65.94;102197.38;6308317;22;45415;-76
2023/10/05 03:16:46;;;;;;;;;6.75;5.75;;;;;17.01;65.64;102190.13;6308908;22;45318;-76
2023/10/05 03:19:14;;;;;;;;;6.75;5.00;;;;;16.95;65.89;102183.13;6308315;22;45437;-76
2023/10/05 03:21:40;;;;;;;;;5.75;5.75;;;;;16.94;65.77;102177.78;6280343;22;47309;-76
2023/10/05 03:24:13;;;;;;;;;6.00;6.00;;;;;16.77;66.31;102141.50;6280110;22;45418;-76
2023/10/05 03:26:42;;;;;;;;;6.25;4.25;;;;;16.90;66.07;102168.91;6283210;22;45300;-76
2023/10/05 03:29:11;;;;;;;;;6.75;4.00;;;;;16.92;66.02;102172.44;6308386;22;45321;-76
2023/10/05 03:31:43;;;;;;;;;4.25;4.00;;;;;16.91;66.28;102180.59;6308992;22;45264;-76
2023/10/05 03:34:09;;;;;;;;;7.75;5.75;;;;;16.88;66.00;102170.78;6280289;22;45573;-75
2023/10/05 03:36:35;;;;;;;;;4.00;4.00;;;;;16.83;66.42;102175.44;6280253;22;45354;-76
2023/10/05 03:39:06;;;;;;;;;5.75;5.75;;;;;16.88;66.31;102189.69;6308791;22;45387;-75
2023/10/05 03:41:32;;;;;;;;;8.25;5.25;;;;;16.68;66.13;102155.28;6280478;22;47136;-75
2023/10/05 03:44:01;;;;;;;;;6.00;6.00;;;;;16.63;65.93;102139.28;6308697;22;45369;-76
2023/10/05 03:46:26;;;;;;;;;9.00;5.75;;;;;16.86;66.02;102183.47;6308263;22;45414;-76
2023/10/05 03:48:59;;;;;;;;;4.25;3.00;;;;;16.84;66.18;102178.13;6308751;22;45228;-76
2023/10/05 03:51:25;;;;;;;;;7.25;5.00;;;;;16.62;66.22;102152.81;6308391;22;45431;-76
2023/10/05 03:53:51;;;;;;;;;6.50;6.00;;;;;16.81;66.55;102188.97;6280653;22;45502;-76
2023/10/05 03:56:23;;;;;;;;;5.75;5.50;;;;;16.62;66.48;102161.81;6308459;22;45474;-76
2023/10/05 03:58:52;;;;;;;;;5.75;5.25;;;;;16.76;66.28;102187.41;6308017;22;45401;-76
2023/10/05 04:01:18;;;;;;;;;6.25;5.75;;;;;16.83;66.41;102205.09;6280574;22;47019;-76
2023/10/05 04:03:44;;;;;;;;;7.50;7.00;;;;;16.70;66.60;102187.59;6308351;22;45287;-76
2023/10/05 04:06:26;;;;;;;;;2.75;2.75;;;;;16.75;66.53;102191.00;6309212;22;45719;-76
2023/10/05 04:08:57;;;;;;;;;5.50;4.00;;;;;16.76;66.54;102193.66;6308943;22;45289;-76
2023/10/05 04:11:26;;;;;;;;;6.00;6.00;;;;;16.77;66.41;102198.13;6280490;22;46946;-76
2023/10/05 04:13:55;;;;;;;;;6.25;6.25;;;;;16.74;66.71;102200.03;6308038;22;45512;-76
2023/10/05 04:16:33;;;;;;;;;7.25;5.75;;;;;16.55;66.54;102157.53;6308331;22;45278;-76
2023/10/05 04:18:59;;;;;;;;;6.00;6.00;;;;;16.77;66.66;102192.75;6307949;22;45586;-75
2023/10/05 04:21:25;;;;;;;;;5.00;5.00;;;;;16.78;66.73;102194.47;6308361;22;45310;-75
2023/10/05 04:23:52;;;;;;;;;7.00;6.00;;;;;16.67;66.99;102181.38;6308378;22;45286;-75
2023/10/05 04:26:21;;;;;;;;;8.75;6.00;;;;;16.62;67.10;102169.88;6308180;22;45490;-76
2023/10/05 04:28:54;;;;;;;;;5.00;5.00;;;;;16.59;66.74;102170.00;6307890;22;45406;-75
2023/10/05 04:31:29;;;;;;;;;6.00;5.00;;;;;16.73;66.71;102192.88;6308749;22;46090;-76
2023/10/05 04:33:56;;;;;;;;;6.00;5.25;;;;;16.72;66.85;102201.91;6308096;22;45533;-76
2023/10/05 04:36:25;;;;;;;;;6.00;4.75;;;;;16.71;67.01;102210.94;6308725;22;45276;-76
2023/10/05 04:38:53;;;;;;;;;6.75;6.00;;;;;16.77;67.14;102216.09;6308136;22;45592;-75
2023/10/05 04:41:28;;;;;;;;;6.00;6.00;;;;;16.58;67.23;102187.09;6332406;22;46925;-75
2023/10/05 04:44:12;;;;;;;;;5.00;5.00;;;;;16.74;67.16;102211.72;6308003;22;45503;-76
2023/10/05 04:46:41;;;;;;;;;4.75;4.75;;;;;16.72;67.28;102204.59;6308419;22;45240;-76
2023/10/05 04:49:09;;;;;;;;;5.75;5.25;;;;;16.64;67.14;102194.09;6307759;22;45417;-75
2023/10/05 04:51:38;;;;;;;;;6.00;6.00;;;;;16.47;67.25;102162.31;6279722;22;47213;-76
2023/10/05 04:54:06;;;;;;;;;6.75;6.75;;;;;16.55;67.31;102181.78;6308181;22;45544;-75
2023/10/05 04:56:43;;;;;;;;;6.00;5.25;;;;;16.55;67.40;102192.56;6308286;22;45383;-75
2023/10/05 05:07:09;;;;;;;;;6.50;6.25;;;;;16.51;67.38;102172.06;6305578;22;45253;-75
2023/10/05 05:09:39;;;;;;;;;8.00;7.25;;;;;16.57;67.59;102196.13;6309561;22;45511;-76
2023/10/05 05:12:16;;;;;;;;;6.00;6.00;;;;;16.35;67.30;102162.75;6281258;22;46407;-75
2023/10/05 05:14:42;;;;;;;;;7.75;7.75;;;;;16.36;67.41;102169.91;6309096;22;45422;-76
2023/10/05 05:17:11;;;;;;;;;6.00;6.00;;;;;16.44;67.34;102184.00;6309628;22;45427;-75
2023/10/05 05:19:39;;;;;;;;;6.50;5.00;;;;;16.32;67.42;102158.31;6309325;22;45397;-76
2023/10/05 05:22:05;;;;;;;;;6.00;5.75;;;;;16.24;67.48;102158.59;6280955;22;47201;-75
2023/10/05 05:24:32;;;;;;;;;6.50;5.25;;;;;16.28;67.86;102168.31;6309080;22;45439;-76
2023/10/05 05:27:00;;;;;;;;;6.25;6.25;;;;;16.23;67.65;102166.72;6309619;22;45247;-76
2023/10/05 05:29:29;;;;;;;;;4.00;4.00;;;;;16.23;67.35;102172.13;6308971;22;45564;-76
2023/10/05 05:31:56;;;;;;;;;6.50;5.00;;;;;16.26;67.76;102178.28;6281113;22;46147;-75
2023/10/05 05:34:25;;;;;;;;;6.25;4.25;;;;;16.28;67.91;102186.31;6308990;22;45466;-76
2023/10/05 05:36:53;;;;;;;;;7.25;4.00;;;;;16.22;67.82;102184.72;6309148;22;45380;-76
2023/10/05 05:39:20;;;;;;;;;5.25;5.00;;;;;16.09;68.10;102162.69;6309311;22;45425;-75
2023/10/05 05:41:55;;;;;;;;;5.25;4.25;;;;;16.17;68.06;102180.41;6309248;22;45880;-76
2023/10/05 05:44:21;;;;;;;;;5.50;5.00;;;;;16.09;68.00;102165.38;6280731;22;45548;-75
2023/10/05 05:46:47;;;;;;;;;10.25;7.00;;;;;16.12;68.23;102185.94;6309143;22;45272;-75
2023/10/05 05:49:16;;;;;;;;;6.50;5.00;;;;;16.14;67.94;102189.47;6308873;22;45666;-75
2023/10/05 05:51:41;;;;;;;;;6.00;5.00;;;;;15.96;68.16;102171.22;6308428;22;46133;-75
2023/10/05 05:54:10;;;;;;;;;4.50;4.50;;;;;15.98;68.18;102178.31;6280672;22;45418;-76
2023/10/05 05:56:36;;;;;;;;;7.75;5.75;;;;;16.15;68.45;102206.50;6309314;22;45342;-75
2023/10/05 05:59:02;;;;;;;;;6.25;6.25;;;;;16.15;68.39;102212.78;6309475;22;45338;-76
2023/10/05 06:01:28;;;;;;;;;6.50;4.75;;;;;15.96;68.35;102188.25;6309202;22;45468;-76
2023/10/05 06:03:54;;;;;;;;;7.25;5.00;;;;;16.02;68.58;102208.72;6305517;22;45527;-69
2023/10/05 06:06:19;;;;;;;;;7.50;6.75;;;;;16.01;68.44;102213.22;6279965;22;45788;-69
2023/10/05 06:08:45;;;;;;;;;7.00;7.00;;;;;15.95;68.69;102209.84;6307014;22;45271;-69
2023/10/05 06:11:12;;;;;;;;;6.00;6.00;;;;;16.04;68.66;102231.97;6279627;22;46753;-69
2023/10/05 06:13:38;;;;;;;;;7.00;5.75;;;;;16.02;68.72;102239.25;6307306;22;45409;-68
2023/10/05 06:16:10;;;;;;;;;4.75;4.75;;;;;16.01;68.84;102239.28;6307422;22;45690;-68
2023/10/05 06:18:39;;;;;;;;;7.00;7.00;;;;;16.01;69.01;102240.16;6308994;22;45211;-68
2023/10/05 06:21:05;;;;;;;;;9.00;7.50;;;;;15.91;69.04;102223.41;6308008;22;45323;-68
2023/10/05 06:23:34;;;;;;;;;8.00;7.00;;;;;16.00;68.91;102248.28;6308637;22;45477;-68
2023/10/05 06:26:01;;;;;;;;;7.50;6.50;;;;;15.96;68.78;102243.94;6281265;22;45237;-68
2023/10/05 06:28:27;;;;;;;;;4.00;2.00;;;;;15.90;69.10;102243.19;6281518;22;45643;-67
2023/10/05 06:30:53;;;;;;;;;8.50;8.50;;;;;15.89;69.24;102235.16;6332417;22;47900;-68
2023/10/05 06:33:20;;;;;;;;;5.75;4.75;;;;;15.93;69.50;102237.69;6307735;22;45393;-68
2023/10/05 06:35:46;;;;;;;;;6.00;6.00;;;;;15.97;69.39;102241.19;6279848;22;45331;-68
2023/10/05 06:38:12;;;;;;;;;8.25;6.00;;;;;15.96;69.53;102225.97;6279535;22;45498;-68
2023/10/05 06:40:37;;;;;;;;;5.75;5.75;;;;;15.93;69.58;102220.66;6308232;22;45373;-68
2023/10/05 06:43:05;;;;;;;;;7.75;5.25;;;;;15.96;69.63;102214.31;6280815;22;45193;-68
2023/10/05 06:45:31;;;;;;;;;6.50;6.00;;;;;15.80;69.52;102189.66;6308559;22;45243;-68
2023/10/05 06:47:56;;;;;;;;;9.00;7.75;;;;;15.84;69.53;102205.69;6308562;22;45564;-68
2023/10/05 06:50:22;;;;;;;;;10.00;6.50;;;;;15.95;69.56;102226.88;6307522;22;45409;-69
2023/10/05 06:52:48;;;;;;;;;7.00;5.75;;;;;15.90;69.64;102227.03;6304423;22;45326;-69
2023/10/05 06:55:17;;;;;;;;;7.50;6.25;;;;;16.02;69.63;102250.00;6280326;22;45441;-69
2023/10/05 06:57:43;;;;;;;;;9.25;6.75;;;;;16.07;69.77;102241.75;6306358;22;45592;-69
2023/10/05 07:00:16;;;;;;;;;7.25;6.75;;;;;16.08;69.85;102247.09;6302685;22;46083;-73
2023/10/05 07:02:46;;;;;;;;;7.00;7.00;;;;;15.88;69.83;102210.03;6306673;22;45637;-74
2023/10/05 07:05:13;;;;;;;;;8.50;7.00;;;;;16.01;69.66;102225.81;6305549;22;45473;-74
2023/10/05 07:07:38;;;;;;;;;9.00;8.00;;;;;16.17;69.72;102256.72;6276173;22;45326;-75
2023/10/05 07:10:06;;;;;;;;;8.75;7.00;;;;;16.16;69.59;102256.78;6307218;22;46445;-75
2023/10/05 07:12:32;;;;;;;;;8.50;8.50;;;;;16.09;69.64;102250.69;6307760;22;45384;-74
2023/10/05 07:14:57;;;;;;;;;5.00;5.00;;;;;15.99;69.79;102231.25;6307446;22;45571;-74
2023/10/05 07:17:25;;;;;;;;;7.00;6.75;;;;;16.17;69.82;102275.59;6279302;22;45221;-75
2023/10/05 07:19:51;;;;;;;;;7.75;7.00;;;;;15.95;69.72;102234.94;6306996;22;45487;-75
2023/10/05 07:22:17;;;;;;;;;10.00;7.75;;;;;16.04;69.58;102248.16;6279532;22;45356;-75
2023/10/05 07:24:43;;;;;;;;;9.25;8.00;;;;;16.00;69.84;102254.53;6279561;22;45359;-75
2023/10/05 07:27:08;;;;;;;;;11.50;8.75;;;;;16.00;69.86;102259.06;6305995;22;45589;-75
2023/10/05 07:29:34;;;;;;;;;11.00;10.50;;;;;16.03;69.94;102272.44;6278569;22;52148;-75
2023/10/05 07:32:00;;;;;;;;;10.00;10.00;;;;;16.08;70.04;102270.47;6279104;22;45303;-75
2023/10/05 07:34:26;;;;;;;;;9.00;8.00;;;;;15.97;70.11;102248.38;6305882;22;45485;-75
2023/10/05 07:36:51;;;;;;;;;11.00;9.50;;;;;15.92;70.37;102240.44;6307289;22;45561;-75
2023/10/05 07:39:18;;;;;;;;;9.50;8.00;;;;;15.81;70.30;102219.22;6272036;22;47517;-75
2023/10/05 07:41:45;;;;;;;;;7.75;7.75;;;;;16.08;70.58;102260.56;6305674;22;45318;-75
2023/10/05 07:44:11;;;;;;;;;7.50;7.50;;;;;15.92;70.41;102237.72;6301933;22;45252;-75
2023/10/05 07:46:38;;;;;;;;;10.50;9.25;;;;;15.85;70.40;102223.56;6304960;22;45464;-75
2023/10/05 07:49:03;;;;;;;;;8.25;8.25;;;;;16.03;70.50;102254.44;6305288;22;45780;-75
2023/10/05 07:51:29;;;;;;;;;14.50;10.25;;;;;16.21;70.32;102285.31;6304762;22;45384;-75
2023/10/05 07:53:54;;;;;;;;;8.00;8.00;;;;;16.07;70.18;102266.91;6276783;22;45375;-75
2023/10/05 07:56:19;;;;;;;;;10.00;9.00;;;;;16.17;70.20;102280.06;6306904;22;45417;-75
2023/10/05 07:58:45;;;;;;;;;9.25;7.75;;;;;16.08;69.91;102246.22;6279269;22;47112;-75
2023/10/05 08:01:10;;;;;;;;;10.00;9.00;;;;;16.20;69.94;102262.00;6279157;22;45495;-75
2023/10/05 08:03:39;;;;;;;;;10.00;10.00;;;;;16.39;69.96;102293.75;6307321;22;45372;-75
2023/10/05 08:06:05;;;;;;;;;12.00;9.25;;;;;16.16;70.25;102237.91;6307050;22;45448;-75
2023/10/05 08:08:31;;;;;;;;;9.75;9.50;;;;;16.39;70.40;102250.63;6307143;22;45432;-75
2023/10/05 08:10:56;;;;;;;;;11.75;10.00;;;;;16.39;69.92;102273.09;6306322;22;45268;-75
2023/10/05 08:13:22;;;;;;;;;11.25;9.50;;;;;16.53;69.95;102299.56;6307622;22;45432;-74
2023/10/05 08:15:48;;;;;;;;;10.00;10.00;;;;;16.55;69.86;102295.00;6275529;22;45913;-75
2023/10/05 08:18:13;;;;;;;;;9.75;9.75;;;;;16.58;69.93;102285.97;6306854;22;46516;-75
2023/10/05 08:20:39;;;;;;;;;10.50;9.00;;;;;16.60;69.49;102297.56;6307668;22;45243;-75
2023/10/05 08:23:06;;;;;;;;;12.25;11.00;;;;;16.56;70.05;102293.22;6304724;22;45411;-75
2023/10/05 08:25:31;;;;;;;;;14.75;11.00;;;;;16.76;70.43;102316.81;6306875;22;45328;-75
2023/10/05 08:27:57;;;;;;;;;9.50;8.00;;;;;16.84;70.36;102331.84;6278932;22;46726;-75
2023/10/05 08:30:25;;;;;;;;;11.00;11.00;;;;;16.88;69.56;102331.75;6307421;22;45285;-75
2023/10/05 08:32:50;;;;;;;;;8.25;8.00;;;;;16.65;69.27;102296.47;6306229;22;45258;-75
2023/10/05 08:35:18;;;;;;;;;11.75;9.00;;;;;16.80;69.02;102323.88;6306159;22;45525;-75
2023/10/05 08:37:48;;;;;;;;;12.75;11.25;;;;;17.01;69.30;102360.06;6306387;22;45245;-75
2023/10/05 08:40:30;;;;;;;;;9.00;7.25;;;;;16.89;69.14;102341.59;6306210;22;45461;-75
2023/10/05 08:43:08;;;;;;;;;13.00;9.75;;;;;16.95;69.29;102350.34;6307158;22;45252;-75
2023/10/05 08:45:47;;;;;;;;;11.00;10.00;;;;;17.13;69.33;102347.97;6305251;22;45259;-75
2023/10/05 08:48:22;;;;;;;;;9.50;7.75;;;;;17.18;69.47;102332.50;6306391;22;45279;-75
2023/10/05 08:50:51;;;;;;;;;12.00;11.25;;;;;17.19;69.30;102354.03;6328362;22;45340;-75
2023/10/05 08:53:20;;;;;;;;;11.00;10.50;;;;;17.01;68.78;102316.91;6306786;22;45489;-75
2023/10/05 08:55:49;;;;;;;;;13.75;12.25;;;;;17.05;69.24;102326.66;6306079;22;45358;-75
2023/10/05 08:58:18;;;;;;;;;8.75;8.50;;;;;17.23;69.49;102358.38;6331718;22;47158;-75
2023/10/05 09:00:46;;;;;;;;;9.50;9.50;;;;;17.17;69.25;102349.63;6279278;22;45217;-75
2023/10/05 09:06:13;;;;;;;;;11.00;11.00;;;;;17.19;68.99;102329.75;6279129;22;45735;-75
2023/10/05 09:11:31;;;;;;;;;11.00;10.00;;;;;17.38;68.50;102358.78;6306005;22;45408;-75
2023/10/05 09:14:13;;;;;;;;;13.75;12.00;;;;;17.40;68.64;102359.63;6305021;22;45663;-75
2023/10/05 09:16:43;;;;;;;;;12.00;11.25;;;;;17.29;68.89;102315.94;6306944;22;45353;-75
2023/10/05 09:19:13;;;;;;;;;12.25;10.00;;;;;17.29;69.27;102303.34;6307023;22;45488;-75
2023/10/05 09:24:29;;;;;;;;;10.25;9.00;;;;;17.25;68.62;102288.16;6307277;22;45273;-73
2023/10/05 09:27:12;;;;;;;;;12.50;11.50;;;;;17.31;68.70;102295.19;6307744;22;45343;-75
2023/10/05 09:29:39;;;;;;;;;11.50;9.00;;;;;17.47;68.29;102328.75;6305099;22;45566;-73
2023/10/05 09:32:09;;;;;;;;;11.50;9.75;;;;;17.37;68.48;102316.53;6307007;22;45214;-73
2023/10/05 09:34:35;;;;;;;;;10.00;10.00;;;;;17.63;68.18;102356.09;6279054;22;45310;-73
2023/10/05 09:37:05;;;;;;;;;10.50;9.75;;;;;17.55;68.29;102326.66;6307514;22;45604;-74
2023/10/05 09:39:46;;;;;;;;;12.75;12.00;;;;;17.58;67.98;102321.16;6307285;22;45378;-73
2023/10/05 09:42:26;;;;;;;;;13.25;11.00;;;;;17.66;67.96;102331.69;6307240;22;45398;-73
2023/10/05 09:44:53;;;;;;;;;10.50;9.75;;;;;17.87;67.27;102342.66;6332193;22;45400;-73
2023/10/05 09:47:25;;;;;;;;;11.00;10.75;;;;;17.74;66.65;102320.59;6280521;22;45441;-74
2023/10/05 09:49:53;;;;;;;;;9.00;8.00;;;;;17.81;66.68;102326.63;6280625;22;47954;-75
2023/10/05 09:52:21;;;;;;;;;12.50;10.50;;;;;17.98;66.64;102351.25;6308205;22;45461;-74
2023/10/05 09:54:47;;;;;;;;;10.00;8.75;;;;;17.81;66.05;102313.13;6307982;22;45374;-76
2023/10/05 09:57:17;;;;;;;;;10.25;8.75;;;;;17.86;65.71;102317.44;6308520;22;45680;-74
2023/10/05 09:59:45;;;;;;;;;10.50;8.50;;;;;17.90;65.85;102323.63;6278205;22;47377;-74
2023/10/05 10:02:17;;;;;;;;;9.25;9.25;;;;;17.94;65.61;102311.75;6308187;22;45419;-74
2023/10/05 10:04:46;;;;;;;;;6.50;6.50;;;;;17.98;65.55;102305.31;6307317;22;45524;-74
2023/10/05 10:07:22;;;;;;;;;10.50;9.00;;;;;18.01;65.52;102307.91;6309000;22;45306;-74
2023/10/05 10:09:53;;;;;;;;;9.25;7.75;;;;;18.30;64.98;102346.41;6278955;22;46357;-73
2023/10/05 10:12:31;;;;;;;;;10.75;8.75;;;;;18.17;65.81;102310.88;6304233;22;45409;-74
2023/10/05 10:14:58;;;;;;;;;10.25;8.00;;;;;18.13;65.48;102295.72;6306856;22;45693;-74
2023/10/05 10:17:27;;;;;;;;;8.50;6.75;;;;;18.38;65.25;102332.59;6306624;22;45272;-74
2023/10/05 10:20:16;;;;;;;;;8.50;8.50;;;;;18.35;64.96;102300.28;6305157;22;45405;-74
2023/10/05 10:22:50;;;;;;;;;7.50;7.50;;;;;18.30;64.54;102287.81;6308195;22;45275;-74
2023/10/05 10:25:38;;;;;;;;;9.25;6.75;;;;;18.28;64.28;102278.03;6306942;22;45546;-74
2023/10/05 10:28:15;;;;;;;;;5.50;5.25;;;;;18.44;64.74;102292.69;6307515;22;45504;-73
2023/10/05 10:31:17;;;;;;;;;6.25;6.25;;;;;18.58;64.25;102308.31;6306910;22;45731;-73
2023/10/05 10:33:43;;;;;;;;;7.75;4.50;;;;;18.47;63.74;102278.13;6306903;22;45569;-74
2023/10/05 10:36:19;;;;;;;;;4.75;4.75;;;;;18.64;63.08;102296.38;6307825;22;45320;-73
2023/10/05 10:38:52;;;;;;;;;6.75;6.25;;;;;18.52;63.39;102276.13;6307581;22;45354;-73
2023/10/05 10:41:21;;;;;;;;;4.75;4.75;;;;;18.52;63.25;102276.13;6306563;22;45532;-73
2023/10/05 10:43:52;;;;;;;;;5.00;4.50;;;;;18.65;63.27;102308.94;6306939;22;45803;-73
2023/10/05 10:46:34;;;;;;;;;7.75;5.75;;;;;18.71;63.22;102314.13;6278539;22;45242;-73
2023/10/05 10:49:00;;;;;;;;;9.50;8.00;;;;;18.65;62.77;102304.41;6307156;22;45346;-73
2023/10/05 10:51:27;;;;;;;;;6.00;5.50;;;;;18.67;62.91;102309.75;6306755;22;46396;-73
2023/10/05 10:53:57;;;;;;;;;9.50;9.50;;;;;18.63;63.42;102302.75;6307147;22;45447;-73
2023/10/05 10:56:44;;;;;;;;;10.25;8.25;;;;;18.78;62.73;102326.44;6307417;22;45412;-73
2023/10/05 10:59:26;;;;;;;;;7.00;7.00;;;;;18.63;63.26;102297.31;6306268;22;45494;-73
2023/10/05 11:01:59;;;;;;;;;6.00;6.00;;;;;18.58;63.05;102285.81;6306823;22;46128;-73
2023/10/05 11:04:36;;;;;;;;;10.50;9.75;;;;;18.81;63.10;102325.41;6307130;22;45252;-73
2023/10/05 11:07:05;;;;;;;;;8.25;6.50;;;;;18.88;62.65;102326.97;6288538;22;45816;-74
2023/10/05 11:09:52;;;;;;;;;9.00;8.00;;;;;18.84;62.21;102309.09;6305999;22;45455;-73
2023/10/05 11:12:21;;;;;;;;;4.00;4.00;;;;;18.95;61.75;102324.88;6278618;22;47777;-73
2023/10/05 11:14:47;;;;;;;;;3.75;3.50;;;;;18.91;61.24;102317.81;6306727;22;45657;-73
2023/10/05 11:17:35;;;;;;;;;6.00;3.75;;;;;19.01;60.87;102332.72;6303277;22;45943;-73
2023/10/05 11:20:17;;;;;;;;;3.75;2.75;;;;;19.01;60.98;102322.78;6307349;22;45482;-73
2023/10/05 11:22:42;;;;;;;;;4.75;4.25;;;;;18.88;61.03;102298.06;6300944;22;46583;-75
2023/10/05 11:25:15;;;;;;;;;3.25;2.75;;;;;19.06;60.62;102317.16;6302122;22;45832;-73
2023/10/05 11:27:47;;;;;;;;;4.00;4.00;;;;;18.97;60.24;102293.22;6308227;22;45266;-73
2023/10/05 11:30:21;;;;;;;;;5.25;5.25;;;;;18.95;59.91;102297.81;6279235;22;45347;-73
2023/10/05 11:32:47;;;;;;;;;4.75;4.25;;;;;19.10;59.55;102318.81;6279535;22;47441;-74
2023/10/05 11:35:15;;;;;;;;;6.00;6.00;;;;;18.86;59.35;102278.34;6302178;22;45389;-73
2023/10/05 11:37:44;;;;;;;;;7.25;4.75;;;;;18.93;59.15;102296.97;6306111;22;45362;-73
2023/10/05 11:40:19;;;;;;;;;8.25;5.25;;;;;19.06;59.68;102309.03;6280222;22;45497;-73
2023/10/05 11:42:48;;;;;;;;;7.00;5.50;;;;;18.94;59.02;102267.16;6307742;22;45432;-73
2023/10/05 11:45:18;;;;;;;;;4.00;4.00;;;;;19.11;58.77;102293.50;6308136;22;45487;-73
2023/10/05 11:47:51;;;;;;;;;4.50;4.25;;;;;19.14;59.11;102295.19;6308482;22;45575;-73
2023/10/05 11:50:32;;;;;;;;;9.25;4.75;;;;;18.96;59.09;102242.75;6279804;22;45389;-74
2023/10/05 11:52:58;;;;;;;;;5.00;4.75;;;;;18.98;58.18;102243.56;6305074;22;47986;-73
2023/10/05 11:55:24;;;;;;;;;4.00;3.25;;;;;19.04;57.84;102255.00;6272639;22;45288;-73